createdAt,value
2019-01-19T00:01:52.098Z,-3.00
2019-01-19T00:05:17.931Z,-3.10
2019-01-19T00:08:22.843Z,-3.10
2019-01-19T00:11:10.989Z,-3.00
2019-01-19T00:14:04.197Z,-3.00
2019-01-19T00:16:56.294Z,-3.20
2019-01-19T00:20:05.638Z,-3.20
2019-01-19T00:23:10.632Z,-3.20
2019-01-19T00:26:37.464Z,-3.20
2019-01-19T00:29:29.373Z,-3.30
2019-01-19T00:32:12.493Z,-3.30
2019-01-19T00:35:17.865Z,-3.40
2019-01-19T00:37:55.918Z,-3.40
2019-01-19T00:40:53.682Z,-3.40
2019-01-19T00:43:36.832Z,-3.50
2019-01-19T00:46:43.718Z,-3.60
2019-01-19T00:49:37.051Z,-3.50
2019-01-19T00:52:50.996Z,-3.50
2019-01-19T00:55:32.162Z,-3.50
2019-01-19T00:58:25.224Z,-3.40
2019-01-19T01:01:53.437Z,-3.50
2019-01-19T01:05:01.515Z,-3.50
2019-01-19T01:08:19.554Z,-3.50
2019-01-19T01:11:05.168Z,-3.60
2019-01-19T01:13:47.216Z,-3.60
2019-01-19T01:16:57.837Z,-3.60
2019-01-19T01:20:09.764Z,-3.70
2019-01-19T01:23:30.412Z,-3.70
2019-01-19T01:27:09.813Z,-3.70
2019-01-19T01:30:06.297Z,-3.50
2019-01-19T01:33:16.108Z,-3.50
2019-01-19T01:36:28.790Z,-3.50
2019-01-19T01:39:15.560Z,-3.60
2019-01-19T01:42:24.285Z,-3.60
2019-01-19T01:45:21.187Z,-3.70
2019-01-19T01:48:50.924Z,-3.70
2019-01-19T01:51:51.035Z,-3.50
2019-01-19T01:54:57.755Z,-3.50
2019-01-19T01:57:46.720Z,-3.70
2019-01-19T02:00:27.474Z,-3.70
2019-01-19T02:03:38.788Z,-3.70
2019-01-19T02:06:58.686Z,-3.70
2019-01-19T02:09:50.605Z,-3.70
2019-01-19T02:12:48.504Z,-3.80
2019-01-19T02:15:52.209Z,-3.90
2019-01-19T02:19:07.045Z,-3.80
2019-01-19T02:22:01.925Z,-3.80
2019-01-19T02:25:10.785Z,-3.90
2019-01-19T02:28:22.544Z,-4.00
2019-01-19T02:31:29.737Z,-4.00
2019-01-19T02:34:23.145Z,-4.00
2019-01-19T02:37:20.338Z,-4.00
2019-01-19T02:40:32.884Z,-4.10
2019-01-19T02:43:16.817Z,-4.10
2019-01-19T02:46:16.631Z,-4.10
2019-01-19T02:49:36.465Z,-4.20
2019-01-19T02:52:56.521Z,-4.20
2019-01-19T02:56:02.062Z,-4.30
2019-01-19T02:59:15.706Z,-4.20
2019-01-19T03:02:21.558Z,-4.30
2019-01-19T03:05:00.212Z,-4.30
2019-01-19T03:08:04.097Z,-4.40
2019-01-19T03:11:01.373Z,-4.40
2019-01-19T03:14:02.008Z,-4.50
2019-01-19T03:17:06.417Z,-4.40
2019-01-19T03:19:53.423Z,-4.40
2019-01-19T03:23:15.780Z,-4.30
2019-01-19T03:26:36.318Z,-4.40
2019-01-19T03:29:46.966Z,-4.50
2019-01-19T03:33:05.584Z,-4.60
2019-01-19T03:36:13.654Z,-4.60
2019-01-19T03:39:16.576Z,-4.60
2019-01-19T03:42:03.659Z,-4.60
2019-01-19T03:44:40.083Z,-4.60
2019-01-19T03:47:39.034Z,-4.60
2019-01-19T03:50:41.222Z,-4.50
2019-01-19T03:53:26.187Z,-4.40
2019-01-19T03:56:42.709Z,-4.40
2019-01-19T04:00:09.546Z,-4.60
2019-01-19T04:03:23.077Z,-4.70
2019-01-19T04:06:40.299Z,-4.60
2019-01-19T04:09:51.265Z,-4.70
2019-01-19T04:13:21.028Z,-4.60
2019-01-19T04:16:36.016Z,-4.80
2019-01-19T04:19:47.161Z,-4.60
2019-01-19T04:22:25.231Z,-4.50
2019-01-19T04:25:16.152Z,-4.50
2019-01-19T04:27:46.868Z,-4.60
2019-01-19T04:30:17.674Z,-4.60
2019-01-19T04:32:48.425Z,-4.70
2019-01-19T04:35:19.164Z,-4.70
2019-01-19T04:37:49.898Z,-4.70
2019-01-19T04:40:20.555Z,-4.70
2019-01-19T04:42:51.465Z,-4.80
2019-01-19T04:45:22.214Z,-4.70
2019-01-19T04:47:52.922Z,-4.70
2019-01-19T04:50:23.588Z,-4.60
2019-01-19T04:52:54.300Z,-4.60
2019-01-19T04:55:24.945Z,-4.60
2019-01-19T04:57:55.764Z,-4.70
2019-01-19T05:00:26.610Z,-4.70
2019-01-19T05:02:57.359Z,-4.80
2019-01-19T05:05:28.138Z,-4.80
2019-01-19T05:07:58.872Z,-4.90
2019-01-19T05:10:29.645Z,-4.90
2019-01-19T05:13:00.795Z,-4.80
2019-01-19T05:15:31.546Z,-4.80
2019-01-19T05:18:04.277Z,-4.70
2019-01-19T05:20:35.013Z,-4.60
2019-01-19T05:23:06.843Z,-4.70
2019-01-19T05:28:08.681Z,-4.80
2019-01-19T05:30:39.576Z,-4.90
2019-01-19T05:33:10.299Z,-5.00
2019-01-19T05:35:42.010Z,-4.90
2019-01-19T05:38:12.733Z,-4.60
2019-01-19T05:40:43.393Z,-4.60
2019-01-19T05:43:15.276Z,-4.10
2019-01-19T05:45:45.865Z,-4.50
2019-01-19T05:48:16.579Z,-4.30
2019-01-19T05:50:47.231Z,-4.70
2019-01-19T05:53:17.959Z,-4.40
2019-01-19T05:55:48.713Z,-4.70
2019-01-19T05:58:19.369Z,-4.70
2019-01-19T06:00:50.173Z,-4.90
2019-01-19T06:03:20.810Z,-4.90
2019-01-19T06:05:52.642Z,-5.00
2019-01-19T06:08:23.407Z,-5.10
2019-01-19T06:10:54.149Z,-5.00
2019-01-19T06:13:24.911Z,-4.70
2019-01-19T06:15:55.642Z,-4.90
2019-01-19T06:18:26.400Z,-5.10
2019-01-19T06:20:57.130Z,-5.10
2019-01-19T06:23:27.941Z,-5.20
2019-01-19T06:25:58.717Z,-5.20
2019-01-19T06:28:30.168Z,-5.30
2019-01-19T06:31:00.894Z,-5.30
2019-01-19T06:33:31.677Z,-5.30
2019-01-19T06:36:02.440Z,-5.30
2019-01-19T06:38:33.183Z,-5.30
2019-01-19T06:41:03.939Z,-5.40
2019-01-19T06:43:34.725Z,-5.40
2019-01-19T06:46:05.481Z,-5.40
2019-01-19T06:48:39.002Z,-5.40
2019-01-19T06:51:09.728Z,-5.50
2019-01-19T06:53:40.468Z,-5.50
2019-01-19T06:56:11.265Z,-5.50
2019-01-19T06:58:41.947Z,-5.40
2019-01-19T07:01:13.163Z,-5.40
2019-01-19T07:03:45.032Z,-5.40
2019-01-19T07:06:15.777Z,-5.40
2019-01-19T07:08:46.434Z,-5.50
2019-01-19T07:11:18.282Z,-5.60
2019-01-19T07:13:49.045Z,-5.60
2019-01-19T07:16:20.113Z,-5.50
2019-01-19T07:18:52.590Z,-5.50
2019-01-19T07:21:23.146Z,-5.40
2019-01-19T07:23:55.480Z,-5.40
2019-01-19T07:26:26.323Z,-5.40
2019-01-19T07:28:57.075Z,-5.40
2019-01-19T07:31:28.288Z,-5.40
2019-01-19T07:33:59.151Z,-5.30
2019-01-19T07:36:30.202Z,-5.30
2019-01-19T07:39:05.557Z,-5.20
2019-01-19T07:41:36.387Z,-5.20
2019-01-19T07:44:07.152Z,-5.20
2019-01-19T07:46:38.233Z,-5.10
2019-01-19T07:49:09.970Z,-5.00
2019-01-19T07:51:40.662Z,-4.90
2019-01-19T07:54:11.478Z,-4.70
2019-01-19T07:56:42.179Z,-4.60
2019-01-19T07:59:12.846Z,-4.50
2019-01-19T08:01:43.590Z,-4.30
2019-01-19T08:04:14.325Z,-4.00
2019-01-19T08:06:44.988Z,-3.70
2019-01-19T08:09:15.733Z,-3.40
2019-01-19T08:11:46.465Z,-3.20
2019-01-19T08:14:17.190Z,-2.90
2019-01-19T08:16:47.889Z,-2.70
2019-01-19T08:19:18.541Z,-2.60
2019-01-19T08:21:49.181Z,-2.50
2019-01-19T08:24:19.981Z,-2.30
2019-01-19T08:26:50.690Z,-2.10
2019-01-19T08:29:21.413Z,-2.30
2019-01-19T08:31:52.147Z,-2.70
2019-01-19T08:34:22.864Z,-2.60
2019-01-19T08:36:53.724Z,-2.50
2019-01-19T08:39:24.529Z,-2.50
2019-01-19T08:41:55.141Z,-2.60
2019-01-19T08:44:25.805Z,-2.80
2019-01-19T08:46:56.501Z,-2.80
2019-01-19T08:49:27.145Z,-2.70
2019-01-19T08:51:57.778Z,-2.70
2019-01-19T08:54:28.505Z,-2.80
2019-01-19T08:56:59.282Z,-2.60
2019-01-19T08:59:30.542Z,-2.70
2019-01-19T09:02:01.266Z,-2.60
2019-01-19T09:04:31.969Z,-2.70
2019-01-19T09:07:02.693Z,-2.70
2019-01-19T09:09:33.265Z,-2.70
2019-01-19T09:12:03.988Z,-2.60
2019-01-19T09:14:34.705Z,-2.60
2019-01-19T09:17:05.340Z,-2.50
2019-01-19T09:19:35.986Z,-2.30
2019-01-19T09:22:06.623Z,-2.20
2019-01-19T09:24:37.357Z,-2.20
2019-01-19T09:27:08.001Z,-2.10
2019-01-19T09:29:38.730Z,-2.00
2019-01-19T09:32:09.565Z,-1.90
2019-01-19T09:34:40.646Z,-1.90
2019-01-19T09:37:11.369Z,-1.80
2019-01-19T09:39:42.025Z,-1.70
2019-01-19T09:42:12.662Z,-1.50
2019-01-19T09:44:43.345Z,-1.40
2019-01-19T09:47:14.073Z,-1.20
2019-01-19T09:49:44.730Z,-1.20
2019-01-19T09:52:21.180Z,-1.00
2019-01-19T09:54:47.726Z,-0.90
2019-01-19T09:57:18.361Z,-0.90
2019-01-19T09:59:49.295Z,-0.90
2019-01-19T10:02:20.042Z,-0.90
2019-01-19T10:04:50.715Z,-0.90
2019-01-19T10:07:21.427Z,-0.80
2019-01-19T10:09:52.146Z,-0.80
2019-01-19T10:12:22.718Z,-0.70
2019-01-19T10:14:53.446Z,-0.60
2019-01-19T10:17:24.177Z,-0.60
2019-01-19T10:19:55.050Z,-0.50
2019-01-19T10:22:25.787Z,-0.40
2019-01-19T10:24:56.525Z,-0.30
2019-01-19T10:27:27.160Z,-0.30
2019-01-19T10:29:57.904Z,-0.30
2019-01-19T10:32:28.466Z,-0.30
2019-01-19T10:34:59.206Z,-0.30
2019-01-19T10:37:29.942Z,-0.40
2019-01-19T10:40:01.795Z,-0.40
2019-01-19T10:42:32.692Z,-0.30
2019-01-19T10:45:03.438Z,-0.30
2019-01-19T10:47:35.245Z,-0.30
2019-01-19T10:50:06.985Z,-0.30
2019-01-19T10:52:37.637Z,-0.50
2019-01-19T10:55:08.975Z,-0.50
2019-01-19T10:57:39.690Z,-0.50
2019-01-19T11:00:21.676Z,-0.60
2019-01-19T11:02:52.933Z,-0.60
2019-01-19T11:05:23.669Z,-0.40
2019-01-19T11:07:54.620Z,-0.30
2019-01-19T11:10:27.168Z,-0.30
2019-01-19T11:12:57.806Z,-0.40
2019-01-19T11:15:28.561Z,-0.40
2019-01-19T11:18:00.245Z,-0.40
2019-01-19T11:20:31.081Z,-0.40
2019-01-19T11:23:01.962Z,-0.40
2019-01-19T11:25:33.724Z,-0.70
2019-01-19T11:28:04.553Z,-0.80
2019-01-19T11:30:35.302Z,-1.00
2019-01-19T11:33:06.025Z,-0.90
2019-01-19T11:35:36.711Z,-0.70
2019-01-19T11:38:11.943Z,-0.70
2019-01-19T11:40:40.301Z,-0.60
2019-01-19T11:43:11.602Z,-0.90
2019-01-19T11:45:42.317Z,-0.80
2019-01-19T11:48:13.063Z,-0.70
2019-01-19T11:50:43.873Z,-0.90
2019-01-19T11:53:14.561Z,-0.90
2019-01-19T11:55:46.048Z,-0.70
2019-01-19T11:58:16.777Z,-0.70
2019-01-19T12:00:47.515Z,-0.80
2019-01-19T12:03:18.328Z,-1.00
2019-01-19T12:05:49.090Z,-1.00
2019-01-19T12:08:20.029Z,-0.90
2019-01-19T12:10:51.382Z,-1.10
2019-01-19T12:13:22.104Z,-0.90
2019-01-19T12:15:52.879Z,-0.90
2019-01-19T12:18:23.593Z,-0.90
2019-01-19T12:20:54.225Z,-0.90
2019-01-19T12:23:24.873Z,-0.90
2019-01-19T12:25:55.622Z,-0.80
2019-01-19T12:28:26.325Z,-0.80
2019-01-19T12:30:56.981Z,-0.70
2019-01-19T12:33:27.714Z,-0.70
2019-01-19T12:35:58.408Z,-0.80
2019-01-19T12:38:29.117Z,-0.80
2019-01-19T12:40:59.915Z,-0.90
2019-01-19T12:43:30.646Z,-0.90
2019-01-19T12:46:03.632Z,-1.00
2019-01-19T12:48:34.198Z,-0.80
2019-01-19T12:51:07.178Z,-0.80
2019-01-19T12:53:37.901Z,-0.70
2019-01-19T12:56:08.926Z,-0.60
2019-01-19T12:58:39.825Z,-0.60
2019-01-19T13:01:10.577Z,-0.60
2019-01-19T13:03:41.227Z,-0.60
2019-01-19T13:06:42.577Z,-0.60
2019-01-19T13:09:43.369Z,-0.70
2019-01-19T13:12:33.441Z,-0.70
2019-01-19T13:16:00.776Z,-0.60
2019-01-19T13:18:39.990Z,-0.60
2019-01-19T13:21:47.599Z,-0.60
2019-01-19T13:24:52.673Z,-0.60
2019-01-19T13:27:46.293Z,-0.60
2019-01-19T13:30:27.746Z,-0.50
2019-01-19T13:33:29.497Z,-0.70
2019-01-19T13:36:19.282Z,-0.70
2019-01-19T13:39:27.833Z,-0.60
2019-01-19T13:42:38.373Z,-0.70
2019-01-19T13:45:45.145Z,-0.50
2019-01-19T13:48:56.691Z,-0.50
2019-01-19T13:51:47.299Z,-0.50
2019-01-19T13:54:44.729Z,-0.60
2019-01-19T13:57:27.885Z,-0.60
2019-01-19T14:00:23.141Z,-0.60
2019-01-19T14:03:46.412Z,-0.60
2019-01-19T14:07:02.334Z,-0.60
2019-01-19T14:10:23.501Z,-0.70
2019-01-19T14:13:32.826Z,-0.70
2019-01-19T14:16:28.833Z,-0.60
2019-01-19T14:19:36.766Z,-0.60
2019-01-19T14:22:54.438Z,-0.60
2019-01-19T14:26:21.230Z,-0.60
2019-01-19T14:29:39.325Z,-0.70
2019-01-19T14:32:55.731Z,-0.70
2019-01-19T14:35:52.676Z,-0.80
2019-01-19T14:39:15.978Z,-0.90
2019-01-19T14:42:15.293Z,-0.70
2019-01-19T14:45:09.825Z,-0.60
2019-01-19T14:48:05.453Z,-0.60
2019-01-19T14:51:04.645Z,-0.70
2019-01-19T14:54:25.877Z,-0.80
2019-01-19T14:57:25.198Z,-0.80
2019-01-19T15:00:32.854Z,-0.80
2019-01-19T15:03:33.021Z,-0.80
2019-01-19T15:06:39.045Z,-0.80
2019-01-19T15:09:30.297Z,-0.90
2019-01-19T15:12:26.878Z,-0.80
2019-01-19T15:15:50.074Z,-0.80
2019-01-19T15:18:35.617Z,-0.80
2019-01-19T15:21:23.073Z,-0.90
2019-01-19T15:24:32.064Z,-0.90
2019-01-19T15:27:46.432Z,-0.90
2019-01-19T15:30:42.763Z,-0.90
2019-01-19T15:33:51.716Z,-0.90
2019-01-19T15:37:02.458Z,-0.90
2019-01-19T15:40:32.121Z,-1.00
2019-01-19T15:43:35.451Z,-1.00
2019-01-19T15:46:56.413Z,-1.00
2019-01-19T15:50:20.167Z,-1.00
2019-01-19T15:53:46.797Z,-1.00
2019-01-19T15:56:50.257Z,-1.00
2019-01-19T15:59:53.401Z,-1.10
2019-01-19T16:03:29.425Z,-1.20
2019-01-19T16:06:46.527Z,-1.20
2019-01-19T16:10:04.505Z,-1.20
2019-01-19T16:13:15.185Z,-1.20
2019-01-19T16:16:29.650Z,-1.20
2019-01-19T16:19:31.959Z,-1.20
2019-01-19T16:23:08.012Z,-1.30
2019-01-19T16:26:15.437Z,-1.30
2019-01-19T16:32:22.474Z,-1.30
2019-01-19T16:35:26.960Z,-1.30
2019-01-19T16:38:20.499Z,-1.40
2019-01-19T16:41:31.594Z,-1.40
2019-01-19T16:44:26.078Z,-1.50
2019-01-19T16:47:43.705Z,-1.60
2019-01-19T16:50:49.434Z,-1.60
2019-01-19T16:53:28.995Z,-1.70
2019-01-19T16:56:55.873Z,-1.70
2019-01-19T16:59:53.560Z,-1.80
2019-01-19T17:02:49.570Z,-1.90
2019-01-19T17:06:01.252Z,-1.90
2019-01-19T17:09:08.490Z,-2.10
2019-01-19T17:12:15.037Z,-2.10
2019-01-19T17:15:37.771Z,-2.10
2019-01-19T17:18:38.947Z,-2.20
2019-01-19T17:21:49.610Z,-2.20
2019-01-19T17:24:51.369Z,-2.30
2019-01-19T17:28:05.980Z,-2.30
2019-01-19T17:31:13.810Z,-2.40
2019-01-19T17:34:09.524Z,-2.50
2019-01-19T17:37:17.300Z,-2.60
2019-01-19T17:40:47.119Z,-2.70
2019-01-19T17:43:42.836Z,-2.70
2019-01-19T17:46:54.619Z,-2.80
2019-01-19T17:49:39.581Z,-2.90
2019-01-19T17:52:50.549Z,-2.80
2019-01-19T17:55:57.406Z,-2.90
2019-01-19T17:59:03.945Z,-3.00
2019-01-19T18:02:07.720Z,-3.10
2019-01-19T18:05:18.816Z,-3.10
2019-01-19T18:08:22.108Z,-3.20
2019-01-19T18:11:27.164Z,-3.30
2019-01-19T18:14:35.842Z,-3.40
2019-01-19T18:17:32.181Z,-3.40
2019-01-19T18:20:49.320Z,-3.50
2019-01-19T18:23:40.534Z,-3.60
2019-01-19T18:26:42.373Z,-3.70
2019-01-19T18:29:48.462Z,-3.70
2019-01-19T18:32:40.690Z,-3.80
2019-01-19T18:35:58.762Z,-3.80
2019-01-19T18:39:12.297Z,-3.90
2019-01-19T18:42:16.961Z,-4.00
2019-01-19T18:45:27.652Z,-4.00
2019-01-19T18:48:30.242Z,-4.10
2019-01-19T18:51:36.849Z,-4.20
2019-01-19T18:54:32.412Z,-4.20
2019-01-19T18:57:58.181Z,-4.20
2019-01-19T19:01:26.502Z,-4.10
2019-01-19T19:04:39.831Z,-4.20
2019-01-19T19:07:51.418Z,-4.20
2019-01-19T19:10:53.155Z,-4.30
2019-01-19T19:13:58.482Z,-4.40
2019-01-19T19:17:01.578Z,-4.40
2019-01-19T19:19:58.925Z,-4.40
2019-01-19T19:23:08.667Z,-4.40
2019-01-19T19:26:09.960Z,-4.50
2019-01-19T19:29:16.141Z,-4.40
2019-01-19T19:32:10.916Z,-4.30
2019-01-19T19:35:07.405Z,-4.30
2019-01-19T19:38:13.063Z,-4.30
2019-01-19T19:41:07.830Z,-4.30
2019-01-19T19:44:16.692Z,-4.30
2019-01-19T19:47:25.052Z,-4.30
2019-01-19T19:50:27.019Z,-4.30
2019-01-19T19:52:57.782Z,-4.30
2019-01-19T19:55:26.878Z,-4.30
2019-01-19T19:57:57.548Z,-4.30
2019-01-19T20:00:29.411Z,-4.30
2019-01-19T20:03:00.242Z,-4.30
2019-01-19T20:05:31.112Z,-4.30
2019-01-19T20:08:01.881Z,-4.20
2019-01-19T20:10:33.669Z,-4.20
2019-01-19T20:13:04.434Z,-4.30
2019-01-19T20:15:35.217Z,-4.40
2019-01-19T20:18:06.077Z,-4.40
2019-01-19T20:20:36.834Z,-4.50
2019-01-19T20:23:07.513Z,-4.70
2019-01-19T20:25:38.305Z,-4.80
2019-01-19T20:28:09.089Z,-5.00
2019-01-19T20:30:39.938Z,-5.10
2019-01-19T20:33:10.733Z,-5.10
2019-01-19T20:35:41.550Z,-5.20
2019-01-19T20:38:12.399Z,-5.20
2019-01-19T20:40:43.121Z,-5.20
2019-01-19T20:43:13.937Z,-5.20
2019-01-19T20:45:44.798Z,-5.30
2019-01-19T20:48:15.669Z,-5.20
2019-01-19T20:50:46.446Z,-5.20
2019-01-19T20:53:17.202Z,-5.20
2019-01-19T20:55:48.043Z,-5.10
2019-01-19T20:58:18.875Z,-5.00
2019-01-19T21:00:49.680Z,-5.10
2019-01-19T21:03:20.477Z,-5.10
2019-01-19T21:05:51.573Z,-5.20
2019-01-19T21:08:22.432Z,-5.30
2019-01-19T21:10:53.257Z,-5.40
2019-01-19T21:13:24.067Z,-6.70
2019-01-19T21:15:54.893Z,-5.60
2019-01-19T21:18:25.584Z,-5.60
2019-01-19T21:20:56.398Z,-5.60
2019-01-19T21:23:27.076Z,-5.60
2019-01-19T21:25:59.428Z,-5.70
2019-01-19T21:28:30.119Z,-5.60
2019-01-19T21:31:01.014Z,-5.60
2019-01-19T21:33:31.744Z,-5.40
2019-01-19T21:36:02.459Z,-5.40
2019-01-19T21:38:33.186Z,-5.10
2019-01-19T21:41:03.861Z,-5.00
2019-01-19T21:43:34.499Z,-5.10
2019-01-19T21:46:05.366Z,-5.10
2019-01-19T21:48:36.389Z,-5.00
2019-01-19T21:51:07.057Z,-5.10
2019-01-19T21:53:37.701Z,-4.90
2019-01-19T21:56:08.420Z,-5.00
2019-01-19T21:58:39.060Z,-4.90
2019-01-19T22:01:09.844Z,-4.90
2019-01-19T22:03:40.586Z,-5.00
2019-01-19T22:06:11.362Z,-5.00
2019-01-19T22:08:42.080Z,-5.00
2019-01-19T22:11:12.763Z,-5.00
2019-01-19T22:13:43.489Z,-5.10
2019-01-19T22:16:14.163Z,-5.00
2019-01-19T22:18:46.169Z,-5.00
2019-01-19T22:21:16.911Z,-5.00
2019-01-19T22:23:47.667Z,-5.10
2019-01-19T22:26:20.218Z,-5.00
2019-01-19T22:28:50.957Z,-5.00
2019-01-19T22:31:21.593Z,-5.00
2019-01-19T22:33:52.258Z,-5.00
2019-01-19T22:36:22.967Z,-5.10
2019-01-19T22:38:53.705Z,-5.10
2019-01-19T22:41:24.417Z,-5.10
2019-01-19T22:43:56.376Z,-5.10
2019-01-19T22:46:29.380Z,-5.20
2019-01-19T22:49:00.101Z,-5.30
2019-01-19T22:51:30.793Z,-5.20
2019-01-19T22:54:01.527Z,-5.20
2019-01-19T22:56:33.251Z,-5.10
2019-01-19T22:59:04.621Z,-5.20
2019-01-19T23:01:38.905Z,-5.20
2019-01-19T23:04:09.654Z,-5.10
2019-01-19T23:06:40.424Z,-5.10
2019-01-19T23:09:12.437Z,-5.10
2019-01-19T23:11:44.157Z,-5.20
2019-01-19T23:14:16.323Z,-5.20
2019-01-19T23:16:47.045Z,-5.20
2019-01-19T23:19:17.645Z,-5.40
2019-01-19T23:21:49.524Z,-5.30
2019-01-19T23:24:21.225Z,-5.30
2019-01-19T23:26:55.107Z,-5.20
2019-01-19T23:29:25.914Z,-5.20
2019-01-19T23:31:58.034Z,-5.20
2019-01-19T23:34:28.776Z,-5.10
2019-01-19T23:37:00.713Z,-5.20
2019-01-19T23:39:31.458Z,-5.20
2019-01-19T23:42:02.096Z,-5.20
2019-01-19T23:44:32.825Z,-5.30
2019-01-19T23:47:03.536Z,-5.30
2019-01-19T23:49:34.204Z,-5.40
2019-01-19T23:52:06.005Z,-5.50
2019-01-19T23:54:36.669Z,-5.80
2019-01-19T23:57:07.310Z,-5.90
2019-01-19T23:59:38.037Z,-6.10
